sensor_id;sensor_type;location;lat;lon;timestamp;pressure;altitude;pressure_sealevel;temperature;humidity
3844;BME280;1937;51.444;6.484;2023-05-24T00:00:43;67020.81;;;9.13;80.19
3844;BME280;1937;51.444;6.484;2023-05-24T00:03:10;66922.09;;;8.92;80.04
3844;BME280;1937;51.444;6.484;2023-05-24T00:05:39;67045.16;;;9.19;79.87
3844;BME280;1937;51.444;6.484;2023-05-24T00:08:06;66996.78;;;8.90;81.63
3844;BME280;1937;51.444;6.484;2023-05-24T00:10:34;67028.31;;;8.99;80.28
3844;BME280;1937;51.444;6.484;2023-05-24T00:13:00;67013.91;;;8.91;80.86
3844;BME280;1937;51.444;6.484;2023-05-24T00:15:27;66974.13;;;8.81;81.39
3844;BME280;1937;51.444;6.484;2023-05-24T00:17:54;66990.84;;;8.76;82.29
3844;BME280;1937;51.444;6.484;2023-05-24T00:20:20;67014.56;;;8.96;81.53
3844;BME280;1937;51.444;6.484;2023-05-24T00:22:47;67019.13;;;8.96;82.00
3844;BME280;1937;51.444;6.484;2023-05-24T00:25:13;67026.91;;;9.00;81.85
3844;BME280;1937;51.444;6.484;2023-05-24T00:27:41;67027.41;;;8.96;82.15
3844;BME280;1937;51.444;6.484;2023-05-24T00:30:08;67022.53;;;8.94;81.83
3844;BME280;1937;51.444;6.484;2023-05-24T00:32:35;66965.88;;;9.01;81.83
3844;BME280;1937;51.444;6.484;2023-05-24T00:35:02;67037.25;;;9.05;81.55
3844;BME280;1937;51.444;6.484;2023-05-24T00:37:29;66998.50;;;8.91;81.96
3844;BME280;1937;51.444;6.484;2023-05-24T00:39:55;67031.69;;;8.98;81.65
3844;BME280;1937;51.444;6.484;2023-05-24T00:42:22;67009.59;;;8.90;82.35
3844;BME280;1937;51.444;6.484;2023-05-24T00:44:50;66999.03;;;8.87;82.40
3844;BME280;1937;51.444;6.484;2023-05-24T00:47:16;67007.56;;;8.86;81.89
3844;BME280;1937;51.444;6.484;2023-05-24T00:49:43;67014.19;;;8.89;81.75
3844;BME280;1937;51.444;6.484;2023-05-24T00:52:10;67022.19;;;8.92;81.59
3844;BME280;1937;51.444;6.484;2023-05-24T00:54:37;67053.34;;;8.79;81.93
3844;BME280;1937;51.444;6.484;2023-05-24T00:57:05;67029.59;;;8.74;82.87
3844;BME280;1937;51.444;6.484;2023-05-24T00:59:32;66925.00;;;8.38;83.02
3844;BME280;1937;51.444;6.484;2023-05-24T01:02:00;66898.22;;;8.21;83.67
3844;BME280;1937;51.444;6.484;2023-05-24T01:04:26;66907.28;;;8.00;83.91
3844;BME280;1937;51.444;6.484;2023-05-24T01:07:08;66909.16;;;8.11;84.21
3844;BME280;1937;51.444;6.484;2023-05-24T01:09:49;66926.94;;;8.02;84.84
3844;BME280;1937;51.444;6.484;2023-05-24T01:12:25;66911.16;;;7.95;84.88
3844;BME280;1937;51.444;6.484;2023-05-24T01:15:03;66853.28;;;8.07;84.95
3844;BME280;1937;51.444;6.484;2023-05-24T01:17:39;66932.22;;;8.11;84.36
3844;BME280;1937;51.444;6.484;2023-05-24T01:20:11;66919.41;;;8.11;84.22
3844;BME280;1937;51.444;6.484;2023-05-24T01:23:03;66882.06;;;7.92;84.41
3844;BME280;1937;51.444;6.484;2023-05-24T01:25:48;66860.47;;;7.59;85.57
3844;BME280;1937;51.444;6.484;2023-05-24T01:28:21;66853.75;;;7.67;86.89
3844;BME280;1937;51.444;6.484;2023-05-24T01:30:49;66848.16;;;7.55;87.05
3844;BME280;1937;51.444;6.484;2023-05-24T01:33:16;66878.13;;;7.61;87.41
3844;BME280;1937;51.444;6.484;2023-05-24T01:35:43;66903.66;;;7.72;88.26
3844;BME280;1937;51.444;6.484;2023-05-24T01:38:09;66884.13;;;7.96;87.39
3844;BME280;1937;51.444;6.484;2023-05-24T01:40:36;66934.53;;;7.97;87.15
3844;BME280;1937;51.444;6.484;2023-05-24T01:43:13;66919.81;;;8.02;86.97
3844;BME280;1937;51.444;6.484;2023-05-24T01:45:48;66920.25;;;7.94;86.68
3844;BME280;1937;51.444;6.484;2023-05-24T01:48:23;66872.00;;;7.85;87.91
3844;BME280;1937;51.444;6.484;2023-05-24T01:50:57;66909.69;;;7.75;88.03
3844;BME280;1937;51.444;6.484;2023-05-24T01:53:26;66895.97;;;7.88;88.22
3844;BME280;1937;51.444;6.484;2023-05-24T01:56:00;66866.91;;;7.69;87.65
3844;BME280;1937;51.444;6.484;2023-05-24T01:58:28;66827.75;;;7.60;87.30
3844;BME280;1937;51.444;6.484;2023-05-24T02:00:57;66811.84;;;7.44;87.94
3844;BME280;1937;51.444;6.484;2023-05-24T02:03:24;66832.59;;;7.26;87.96
3844;BME280;1937;51.444;6.484;2023-05-24T02:05:51;66809.81;;;7.24;88.71
3844;BME280;1937;51.444;6.484;2023-05-24T02:08:18;66822.09;;;7.28;89.83
3844;BME280;1937;51.444;6.484;2023-05-24T02:10:45;66847.69;;;7.28;89.25
3844;BME280;1937;51.444;6.484;2023-05-24T02:13:12;66876.50;;;7.49;89.13
3844;BME280;1937;51.444;6.484;2023-05-24T02:15:40;66847.44;;;7.46;89.12
3844;BME280;1937;51.444;6.484;2023-05-24T02:18:08;66861.97;;;7.47;89.39
3844;BME280;1937;51.444;6.484;2023-05-24T02:20:35;66846.94;;;7.50;89.40
3844;BME280;1937;51.444;6.484;2023-05-24T02:23:02;66837.78;;;7.30;89.91
3844;BME280;1937;51.444;6.484;2023-05-24T02:25:29;66832.44;;;7.17;89.41
3844;BME280;1937;51.444;6.484;2023-05-24T02:27:56;66817.41;;;7.19;89.60
3844;BME280;1937;51.444;6.484;2023-05-24T02:30:22;66829.22;;;7.12;89.76
3844;BME280;1937;51.444;6.484;2023-05-24T02:32:49;66845.91;;;7.06;89.91
3844;BME280;1937;51.444;6.484;2023-05-24T02:35:17;66805.22;;;6.88;90.84
3844;BME280;1937;51.444;6.484;2023-05-24T02:37:44;66814.44;;;6.96;90.55
3844;BME280;1937;51.444;6.484;2023-05-24T02:40:11;66766.34;;;6.92;90.82
3844;BME280;1937;51.444;6.484;2023-05-24T02:42:38;66798.34;;;6.87;91.64
3844;BME280;1937;51.444;6.484;2023-05-24T02:45:05;66810.56;;;7.02;91.26
3844;BME280;1937;51.444;6.484;2023-05-24T02:47:32;66814.44;;;6.96;91.16
3844;BME280;1937;51.444;6.484;2023-05-24T02:49:59;66820.88;;;6.91;91.28
3844;BME280;1937;51.444;6.484;2023-05-24T02:52:27;66803.31;;;6.93;90.87
3844;BME280;1937;51.444;6.484;2023-05-24T02:54:53;66781.59;;;6.72;91.32
3844;BME280;1937;51.444;6.484;2023-05-24T02:57:20;66827.50;;;6.94;91.29
3844;BME280;1937;51.444;6.484;2023-05-24T02:59:47;66913.91;;;6.94;91.76
3844;BME280;1937;51.444;6.484;2023-05-24T03:02:13;66832.03;;;6.94;91.41
3844;BME280;1937;51.444;6.484;2023-05-24T03:04:40;66821.38;;;7.03;91.06
3844;BME280;1937;51.444;6.484;2023-05-24T03:07:06;66820.72;;;6.97;91.28
3844;BME280;1937;51.444;6.484;2023-05-24T03:09:34;66771.78;;;6.79;91.20
3844;BME280;1937;51.444;6.484;2023-05-24T03:12:04;66788.19;;;6.91;91.03
3844;BME280;1937;51.444;6.484;2023-05-24T03:14:31;66785.88;;;6.89;91.78
3844;BME280;1937;51.444;6.484;2023-05-24T03:16:57;66831.44;;;7.09;90.88
3844;BME280;1937;51.444;6.484;2023-05-24T03:19:24;66823.19;;;7.09;90.80
3844;BME280;1937;51.444;6.484;2023-05-24T03:21:51;66875.13;;;7.18;90.73
3844;BME280;1937;51.444;6.484;2023-05-24T03:24:17;66834.66;;;6.98;90.48
3844;BME280;1937;51.444;6.484;2023-05-24T03:26:46;66828.63;;;6.95;91.03
3844;BME280;1937;51.444;6.484;2023-05-24T03:29:13;66784.75;;;6.88;91.85
3844;BME280;1937;51.444;6.484;2023-05-24T03:31:39;66822.13;;;6.96;91.94
3844;BME280;1937;51.444;6.484;2023-05-24T03:34:06;66862.66;;;7.05;91.86
3844;BME280;1937;51.444;6.484;2023-05-24T03:36:32;66825.59;;;6.99;91.10
3844;BME280;1937;51.444;6.484;2023-05-24T03:39:00;66834.09;;;6.98;91.40
3844;BME280;1937;51.444;6.484;2023-05-24T03:41:28;66861.25;;;7.22;90.72
3844;BME280;1937;51.444;6.484;2023-05-24T03:43:56;66825.91;;;7.18;90.17
3844;BME280;1937;51.444;6.484;2023-05-24T03:46:23;66811.03;;;7.14;90.79
3844;BME280;1937;51.444;6.484;2023-05-24T03:48:49;66872.56;;;7.18;91.20
3844;BME280;1937;51.444;6.484;2023-05-24T03:51:16;66868.75;;;7.28;90.40
3844;BME280;1937;51.444;6.484;2023-05-24T03:53:44;66863.72;;;7.17;91.19
3844;BME280;1937;51.444;6.484;2023-05-24T03:56:10;66878.16;;;7.30;91.04
3844;BME280;1937;51.444;6.484;2023-05-24T03:58:37;66857.53;;;7.21;91.17
3844;BME280;1937;51.444;6.484;2023-05-24T04:01:05;66915.72;;;7.16;91.45
3844;BME280;1937;51.444;6.484;2023-05-24T04:03:32;66896.91;;;7.28;91.30
3844;BME280;1937;51.444;6.484;2023-05-24T04:05:59;66921.09;;;7.45;91.21
3844;BME280;1937;51.444;6.484;2023-05-24T04:08:25;66910.19;;;7.40;91.32
3844;BME280;1937;51.444;6.484;2023-05-24T04:10:52;66888.31;;;7.41;89.67
3844;BME280;1937;51.444;6.484;2023-05-24T04:13:18;66889.06;;;7.51;90.32
3844;BME280;1937;51.444;6.484;2023-05-24T04:15:45;66909.69;;;7.44;90.88
3844;BME280;1937;51.444;6.484;2023-05-24T04:18:13;66924.00;;;7.48;90.41
3844;BME280;1937;51.444;6.484;2023-05-24T04:20:39;66940.03;;;7.53;89.99
3844;BME280;1937;51.444;6.484;2023-05-24T04:23:06;66885.41;;;7.38;91.31
3844;BME280;1937;51.444;6.484;2023-05-24T04:25:33;66871.16;;;7.35;91.09
3844;BME280;1937;51.444;6.484;2023-05-24T04:27:59;66898.78;;;7.55;90.55
3844;BME280;1937;51.444;6.484;2023-05-24T04:30:26;66891.03;;;7.50;91.26
3844;BME280;1937;51.444;6.484;2023-05-24T04:32:54;66917.94;;;7.60;91.97
3844;BME280;1937;51.444;6.484;2023-05-24T04:35:22;66937.59;;;7.30;94.02
3844;BME280;1937;51.444;6.484;2023-05-24T04:37:49;66975.97;;;7.73;93.90
3844;BME280;1937;51.444;6.484;2023-05-24T04:40:16;66950.34;;;7.89;93.55
3844;BME280;1937;51.444;6.484;2023-05-24T04:42:45;66992.31;;;7.96;94.63
3844;BME280;1937;51.444;6.484;2023-05-24T04:45:11;67046.47;;;8.14;93.43
3844;BME280;1937;51.444;6.484;2023-05-24T04:47:38;67076.91;;;8.28;93.84
3844;BME280;1937;51.444;6.484;2023-05-24T04:50:05;67068.41;;;8.45;92.98
3844;BME280;1937;51.444;6.484;2023-05-24T04:52:33;66994.06;;;8.29;92.03
3844;BME280;1937;51.444;6.484;2023-05-24T04:55:01;67050.16;;;8.42;91.71
3844;BME280;1937;51.444;6.484;2023-05-24T04:57:27;67041.97;;;8.46;91.17
3844;BME280;1937;51.444;6.484;2023-05-24T04:59:54;67074.13;;;8.45;90.79
3844;BME280;1937;51.444;6.484;2023-05-24T05:02:21;67045.00;;;8.58;90.48
3844;BME280;1937;51.444;6.484;2023-05-24T05:04:48;67154.38;;;8.55;90.96
3844;BME280;1937;51.444;6.484;2023-05-24T05:07:14;67066.34;;;8.56;90.46
3844;BME280;1937;51.444;6.484;2023-05-24T05:09:42;67138.13;;;8.83;90.35
3844;BME280;1937;51.444;6.484;2023-05-24T05:12:09;67214.78;;;8.96;89.40
3844;BME280;1937;51.444;6.484;2023-05-24T05:14:35;67180.41;;;9.36;89.15
3844;BME280;1937;51.444;6.484;2023-05-24T05:17:02;67196.38;;;9.52;88.83
3844;BME280;1937;51.444;6.484;2023-05-24T05:19:29;67230.34;;;9.68;88.05
3844;BME280;1937;51.444;6.484;2023-05-24T05:21:56;67232.34;;;9.68;86.93
3844;BME280;1937;51.444;6.484;2023-05-24T05:24:22;67192.50;;;9.42;88.05
3844;BME280;1937;51.444;6.484;2023-05-24T05:26:50;67283.00;;;9.90;87.36
3844;BME280;1937;51.444;6.484;2023-05-24T05:29:17;67260.84;;;10.29;86.27
3844;BME280;1937;51.444;6.484;2023-05-24T05:31:45;67301.00;;;10.37;85.62
3844;BME280;1937;51.444;6.484;2023-05-24T05:34:12;67384.06;;;10.31;85.52
3844;BME280;1937;51.444;6.484;2023-05-24T05:36:38;67219.97;;;9.95;85.76
3844;BME280;1937;51.444;6.484;2023-05-24T05:39:05;67310.88;;;10.30;85.03
3844;BME280;1937;51.444;6.484;2023-05-24T05:41:35;67348.44;;;10.53;84.22
3844;BME280;1937;51.444;6.484;2023-05-24T05:44:04;67360.72;;;10.53;82.22
3844;BME280;1937;51.444;6.484;2023-05-24T05:46:30;67398.34;;;10.30;82.82
3844;BME280;1937;51.444;6.484;2023-05-24T05:48:57;67346.03;;;10.47;83.97
3844;BME280;1937;51.444;6.484;2023-05-24T05:51:24;67388.28;;;10.75;83.53
3844;BME280;1937;51.444;6.484;2023-05-24T05:53:51;67379.22;;;10.80;81.87
3844;BME280;1937;51.444;6.484;2023-05-24T05:56:17;67377.50;;;10.63;83.11
3844;BME280;1937;51.444;6.484;2023-05-24T05:58:44;67364.00;;;10.78;82.05
3844;BME280;1937;51.444;6.484;2023-05-24T06:01:12;67325.28;;;10.53;82.67
3844;BME280;1937;51.444;6.484;2023-05-24T06:03:38;67339.63;;;10.57;83.84
3844;BME280;1937;51.444;6.484;2023-05-24T06:06:05;67378.91;;;10.78;82.81
3844;BME280;1937;51.444;6.484;2023-05-24T06:08:32;67423.94;;;11.19;81.61
3844;BME280;1937;51.444;6.484;2023-05-24T06:10:59;67492.13;;;11.56;80.89
3844;BME280;1937;51.444;6.484;2023-05-24T06:13:26;67520.72;;;11.85;79.52
3844;BME280;1937;51.444;6.484;2023-05-24T06:15:53;67596.31;;;12.31;77.96
3844;BME280;1937;51.444;6.484;2023-05-24T06:18:21;67615.44;;;12.43;76.14
3844;BME280;1937;51.444;6.484;2023-05-24T06:20:47;67600.31;;;12.30;77.47
3844;BME280;1937;51.444;6.484;2023-05-24T06:23:14;67609.50;;;12.49;75.89
3844;BME280;1937;51.444;6.484;2023-05-24T06:25:41;67578.63;;;12.38;76.31
3844;BME280;1937;51.444;6.484;2023-05-24T06:28:08;67651.78;;;12.72;75.81
3844;BME280;1937;51.444;6.484;2023-05-24T06:30:35;67577.75;;;12.19;76.27
3844;BME280;1937;51.444;6.484;2023-05-24T06:33:02;67641.81;;;12.59;75.19
3844;BME280;1937;51.444;6.484;2023-05-24T06:35:30;67649.78;;;12.73;76.02
3844;BME280;1937;51.444;6.484;2023-05-24T06:37:56;67626.03;;;12.41;76.37
3844;BME280;1937;51.444;6.484;2023-05-24T06:40:23;67553.88;;;12.50;74.04
3844;BME280;1937;51.444;6.484;2023-05-24T06:42:49;67698.06;;;12.59;75.02
3844;BME280;1937;51.444;6.484;2023-05-24T06:45:16;67650.06;;;12.91;74.61
3844;BME280;1937;51.444;6.484;2023-05-24T06:47:43;67689.56;;;13.17;73.65
3844;BME280;1937;51.444;6.484;2023-05-24T06:50:10;67675.91;;;12.91;74.28
3844;BME280;1937;51.444;6.484;2023-05-24T06:52:38;67675.22;;;13.02;74.33
3844;BME280;1937;51.444;6.484;2023-05-24T06:55:05;67742.78;;;13.40;74.14
3844;BME280;1937;51.444;6.484;2023-05-24T06:57:31;67797.28;;;13.70;72.43
3844;BME280;1937;51.444;6.484;2023-05-24T06:59:58;67765.31;;;13.46;74.43
3844;BME280;1937;51.444;6.484;2023-05-24T07:02:24;67709.72;;;13.21;74.14
3844;BME280;1937;51.444;6.484;2023-05-24T07:04:53;67793.69;;;13.78;72.25
3844;BME280;1937;51.444;6.484;2023-05-24T07:07:19;67855.13;;;14.09;71.76
3844;BME280;1937;51.444;6.484;2023-05-24T07:09:48;67814.66;;;13.96;70.59
3844;BME280;1937;51.444;6.484;2023-05-24T07:12:14;67854.81;;;14.06;71.06
3844;BME280;1937;51.444;6.484;2023-05-24T07:14:41;67769.03;;;13.63;71.49
3844;BME280;1937;51.444;6.484;2023-05-24T07:17:08;67836.00;;;13.81;70.87
3844;BME280;1937;51.444;6.484;2023-05-24T07:19:34;67695.09;;;13.39;73.98
3844;BME280;1937;51.444;6.484;2023-05-24T07:22:01;67815.91;;;13.66;72.63
3844;BME280;1937;51.444;6.484;2023-05-24T07:24:28;67765.38;;;13.51;72.67
3844;BME280;1937;51.444;6.484;2023-05-24T07:26:56;67795.72;;;13.62;73.71
3844;BME280;1937;51.444;6.484;2023-05-24T07:29:23;67692.16;;;13.17;73.56
3844;BME280;1937;51.444;6.484;2023-05-24T07:31:50;67695.72;;;13.08;73.36
3844;BME280;1937;51.444;6.484;2023-05-24T07:34:17;67621.84;;;12.85;75.80
3844;BME280;1937;51.444;6.484;2023-05-24T07:36:45;67664.94;;;12.86;74.09
3844;BME280;1937;51.444;6.484;2023-05-24T07:39:12;67663.09;;;12.96;73.65
3844;BME280;1937;51.444;6.484;2023-05-24T07:41:40;67630.22;;;12.69;73.04
3844;BME280;1937;51.444;6.484;2023-05-24T07:44:08;67639.91;;;13.00;72.89
3844;BME280;1937;51.444;6.484;2023-05-24T07:46:36;67631.84;;;12.82;73.61
3844;BME280;1937;51.444;6.484;2023-05-24T07:49:02;67637.69;;;12.87;73.98
3844;BME280;1937;51.444;6.484;2023-05-24T07:51:29;67708.25;;;13.37;72.04
3844;BME280;1937;51.444;6.484;2023-05-24T07:53:56;67842.59;;;14.16;70.29
3844;BME280;1937;51.444;6.484;2023-05-24T07:56:23;67965.38;;;14.80;69.75
3844;BME280;1937;51.444;6.484;2023-05-24T07:58:50;68165.56;;;15.94;66.58
3844;BME280;1937;51.444;6.484;2023-05-24T08:01:19;68014.44;;;15.22;65.69
3844;BME280;1937;51.444;6.484;2023-05-24T08:03:47;67892.16;;;14.74;65.36
3844;BME280;1937;51.444;6.484;2023-05-24T08:06:13;67878.69;;;14.07;68.54
3844;BME280;1937;51.444;6.484;2023-05-24T08:08:40;67777.00;;;13.77;69.38
3844;BME280;1937;51.444;6.484;2023-05-24T08:11:07;67753.84;;;13.66;71.06
3844;BME280;1937;51.444;6.484;2023-05-24T08:13:33;67819.56;;;13.78;69.49
3844;BME280;1937;51.444;6.484;2023-05-24T08:16:00;67890.81;;;14.44;70.03
3844;BME280;1937;51.444;6.484;2023-05-24T08:18:28;67938.09;;;14.85;68.43
3844;BME280;1937;51.444;6.484;2023-05-24T08:20:55;68074.47;;;15.45;64.87
3844;BME280;1937;51.444;6.484;2023-05-24T08:23:21;68057.94;;;15.37;65.45
3844;BME280;1937;51.444;6.484;2023-05-24T08:25:48;67886.56;;;14.67;66.10
3844;BME280;1937;51.444;6.484;2023-05-24T08:28:15;68040.63;;;15.36;65.25
3844;BME280;1937;51.444;6.484;2023-05-24T08:30:42;68032.44;;;15.29;65.51
3844;BME280;1937;51.444;6.484;2023-05-24T08:33:09;67997.84;;;15.10;65.72
3844;BME280;1937;51.444;6.484;2023-05-24T08:35:37;67995.59;;;15.33;63.70
3844;BME280;1937;51.444;6.484;2023-05-24T08:38:03;68007.09;;;15.49;62.78
3844;BME280;1937;51.444;6.484;2023-05-24T08:40:30;68148.75;;;16.25;60.40
3844;BME280;1937;51.444;6.484;2023-05-24T08:42:59;68029.59;;;15.67;59.07
3844;BME280;1937;51.444;6.484;2023-05-24T08:45:28;68091.88;;;15.87;58.04
3844;BME280;1937;51.444;6.484;2023-05-24T08:47:56;67902.47;;;15.10;60.67
3844;BME280;1937;51.444;6.484;2023-05-24T08:50:23;67831.97;;;14.74;63.11
3844;BME280;1937;51.444;6.484;2023-05-24T08:52:51;67872.66;;;14.60;63.68
3844;BME280;1937;51.444;6.484;2023-05-24T08:55:20;67790.44;;;14.29;64.60
3844;BME280;1937;51.444;6.484;2023-05-24T08:57:47;67788.16;;;14.31;65.57
3844;BME280;1937;51.444;6.484;2023-05-24T09:00:15;67962.47;;;14.77;64.44
3844;BME280;1937;51.444;6.484;2023-05-24T09:02:42;67989.69;;;15.23;64.36
3844;BME280;1937;51.444;6.484;2023-05-24T09:05:12;68068.31;;;15.73;62.75
3844;BME280;1937;51.444;6.484;2023-05-24T09:07:42;68019.19;;;15.67;61.55
3844;BME280;1937;51.444;6.484;2023-05-24T09:10:11;67945.72;;;15.12;61.44
3844;BME280;1937;51.444;6.484;2023-05-24T09:12:38;67938.25;;;15.14;61.95
3844;BME280;1937;51.444;6.484;2023-05-24T09:15:07;67897.19;;;15.01;61.12
3844;BME280;1937;51.444;6.484;2023-05-24T09:17:34;67792.69;;;14.26;63.40
3844;BME280;1937;51.444;6.484;2023-05-24T09:20:01;67810.81;;;14.42;64.00
3844;BME280;1937;51.444;6.484;2023-05-24T09:22:31;67743.13;;;13.99;64.73
3844;BME280;1937;51.444;6.484;2023-05-24T09:24:59;67854.50;;;14.40;64.22
3844;BME280;1937;51.444;6.484;2023-05-24T09:27:28;67816.09;;;14.51;64.52
3844;BME280;1937;51.444;6.484;2023-05-24T09:29:57;67873.13;;;14.71;63.83
3844;BME280;1937;51.444;6.484;2023-05-24T09:32:23;68019.13;;;15.62;61.48
3844;BME280;1937;51.444;6.484;2023-05-24T09:34:51;68031.78;;;15.60;60.67
3844;BME280;1937;51.444;6.484;2023-05-24T09:37:19;68091.19;;;15.97;61.23
3844;BME280;1937;51.444;6.484;2023-05-24T09:39:48;68175.31;;;16.46;59.33
3844;BME280;1937;51.444;6.484;2023-05-24T09:42:16;68072.28;;;16.08;60.26
3844;BME280;1937;51.444;6.484;2023-05-24T09:44:46;68267.00;;;16.71;57.85
3844;BME280;1937;51.444;6.484;2023-05-24T09:47:13;68257.47;;;16.90;56.67
3844;BME280;1937;51.444;6.484;2023-05-24T09:49:40;68231.78;;;16.36;58.23
3844;BME280;1937;51.444;6.484;2023-05-24T09:52:07;68110.28;;;16.21;57.13
3844;BME280;1937;51.444;6.484;2023-05-24T09:54:34;67890.44;;;15.13;59.10
3844;BME280;1937;51.444;6.484;2023-05-24T09:57:02;67848.09;;;14.74;59.93
3844;BME280;1937;51.444;6.484;2023-05-24T09:59:31;67911.50;;;15.16;58.99
3844;BME280;1937;51.444;6.484;2023-05-24T10:02:06;67925.63;;;15.37;59.19
3844;BME280;1937;51.444;6.484;2023-05-24T10:04:34;67932.19;;;15.11;59.30
3844;BME280;1937;51.444;6.484;2023-05-24T10:07:01;67905.59;;;15.27;60.53
3844;BME280;1937;51.444;6.484;2023-05-24T10:09:29;67927.91;;;15.35;59.12
3844;BME280;1937;51.444;6.484;2023-05-24T10:12:00;67931.06;;;15.35;60.27
3844;BME280;1937;51.444;6.484;2023-05-24T10:14:30;67819.75;;;14.84;58.36
3844;BME280;1937;51.444;6.484;2023-05-24T10:16:58;67853.94;;;14.80;59.33
3844;BME280;1937;51.444;6.484;2023-05-24T10:19:26;67933.16;;;15.19;58.49
3844;BME280;1937;51.444;6.484;2023-05-24T10:21:54;67907.88;;;15.24;58.50
3844;BME280;1937;51.444;6.484;2023-05-24T10:24:23;68023.09;;;15.41;59.64
3844;BME280;1937;51.444;6.484;2023-05-24T10:26:52;67987.25;;;15.52;58.69
3844;BME280;1937;51.444;6.484;2023-05-24T10:29:28;68058.84;;;15.96;58.60
3844;BME280;1937;51.444;6.484;2023-05-24T10:31:59;68213.84;;;16.90;55.87
3844;BME280;1937;51.444;6.484;2023-05-24T10:34:27;68157.75;;;16.66;55.36
3844;BME280;1937;51.444;6.484;2023-05-24T10:36:56;68074.50;;;16.01;56.14
3844;BME280;1937;51.444;6.484;2023-05-24T10:39:24;67953.72;;;15.46;58.53
3844;BME280;1937;51.444;6.484;2023-05-24T10:41:51;67995.75;;;15.62;58.63
3844;BME280;1937;51.444;6.484;2023-05-24T10:44:20;68144.84;;;16.35;57.78
3844;BME280;1937;51.444;6.484;2023-05-24T10:47:10;68251.25;;;17.18;55.73
3844;BME280;1937;51.444;6.484;2023-05-24T10:49:46;68203.94;;;16.86;55.78
3844;BME280;1937;51.444;6.484;2023-05-24T10:52:15;68153.56;;;16.58;57.01
3844;BME280;1937;51.444;6.484;2023-05-24T10:55:00;68227.75;;;17.13;55.96
3844;BME280;1937;51.444;6.484;2023-05-24T10:57:28;68178.59;;;16.71;56.13
3844;BME280;1937;51.444;6.484;2023-05-24T10:59:56;68184.50;;;16.81;56.26
3844;BME280;1937;51.444;6.484;2023-05-24T11:02:26;68271.25;;;16.84;52.76
3844;BME280;1937;51.444;6.484;2023-05-24T11:04:55;68136.28;;;16.61;54.93
3844;BME280;1937;51.444;6.484;2023-05-24T11:07:22;68122.03;;;16.56;55.65
3844;BME280;1937;51.444;6.484;2023-05-24T11:09:49;68242.50;;;17.15;54.15
3844;BME280;1937;51.444;6.484;2023-05-24T11:12:21;68126.41;;;16.57;54.57
3844;BME280;1937;51.444;6.484;2023-05-24T11:14:49;68157.22;;;16.70;54.62
3844;BME280;1937;51.444;6.484;2023-05-24T11:17:19;68279.84;;;17.38;54.17
3844;BME280;1937;51.444;6.484;2023-05-24T11:19:48;68419.38;;;18.18;51.46
3844;BME280;1937;51.444;6.484;2023-05-24T11:22:18;68361.91;;;17.89;52.06
3844;BME280;1937;51.444;6.484;2023-05-24T11:24:46;68434.34;;;18.13;51.63
3844;BME280;1937;51.444;6.484;2023-05-24T11:27:13;68297.88;;;17.45;52.85
3844;BME280;1937;51.444;6.484;2023-05-24T11:29:40;68116.59;;;16.58;56.40
3844;BME280;1937;51.444;6.484;2023-05-24T11:32:07;68116.72;;;16.47;57.34
3844;BME280;1937;51.444;6.484;2023-05-24T11:34:33;68066.84;;;16.10;57.24
3844;BME280;1937;51.444;6.484;2023-05-24T11:37:01;68067.63;;;16.04;57.20
3844;BME280;1937;51.444;6.484;2023-05-24T11:39:32;68025.34;;;15.74;57.52
3844;BME280;1937;51.444;6.484;2023-05-24T11:42:00;67940.69;;;15.62;59.15
3844;BME280;1937;51.444;6.484;2023-05-24T11:44:28;67985.56;;;15.96;57.76
3844;BME280;1937;51.444;6.484;2023-05-24T11:46:56;68089.94;;;16.32;56.61
3844;BME280;1937;51.444;6.484;2023-05-24T11:49:23;68067.47;;;16.15;56.81
3844;BME280;1937;51.444;6.484;2023-05-24T11:51:53;68007.19;;;15.94;58.08
3844;BME280;1937;51.444;6.484;2023-05-24T11:54:20;68117.47;;;16.20;57.19
3844;BME280;1937;51.444;6.484;2023-05-24T11:56:48;68142.31;;;16.19;58.60
3844;BME280;1937;51.444;6.484;2023-05-24T11:59:17;68074.69;;;16.15;58.50
3844;BME280;1937;51.444;6.484;2023-05-24T12:01:46;67937.56;;;15.66;58.48
3844;BME280;1937;51.444;6.484;2023-05-24T12:04:14;68004.72;;;15.83;58.13
3844;BME280;1937;51.444;6.484;2023-05-24T12:06:41;67895.91;;;15.56;55.99
3844;BME280;1937;51.444;6.484;2023-05-24T12:09:09;67913.50;;;15.36;57.58
3844;BME280;1937;51.444;6.484;2023-05-24T12:11:38;67971.75;;;15.57;56.81
3844;BME280;1937;51.444;6.484;2023-05-24T12:14:10;67933.06;;;15.75;58.15
3844;BME280;1937;51.444;6.484;2023-05-24T12:16:38;67958.66;;;15.68;58.80
3844;BME280;1937;51.444;6.484;2023-05-24T12:19:04;67959.53;;;15.51;59.52
3844;BME280;1937;51.444;6.484;2023-05-24T12:21:31;67925.69;;;15.42;60.09
3844;BME280;1937;51.444;6.484;2023-05-24T12:24:09;67865.16;;;15.19;59.76
3844;BME280;1937;51.444;6.484;2023-05-24T12:26:39;67898.31;;;15.02;60.36
3844;BME280;1937;51.444;6.484;2023-05-24T12:29:08;67946.25;;;15.48;59.76
3844;BME280;1937;51.444;6.484;2023-05-24T12:31:36;67897.94;;;15.36;59.16
3844;BME280;1937;51.444;6.484;2023-05-24T12:34:02;67905.84;;;15.25;59.93
3844;BME280;1937;51.444;6.484;2023-05-24T12:36:31;67958.00;;;15.63;60.15
3844;BME280;1937;51.444;6.484;2023-05-24T12:38:58;68014.84;;;15.65;58.87
3844;BME280;1937;51.444;6.484;2023-05-24T12:41:25;68050.47;;;16.16;58.37
3844;BME280;1937;51.444;6.484;2023-05-24T12:43:52;68009.59;;;15.81;59.23
3844;BME280;1937;51.444;6.484;2023-05-24T12:46:20;68030.31;;;15.40;58.87
3844;BME280;1937;51.444;6.484;2023-05-24T12:48:48;68004.97;;;15.81;59.21
3844;BME280;1937;51.444;6.484;2023-05-24T12:51:14;68016.34;;;15.89;58.87
3844;BME280;1937;51.444;6.484;2023-05-24T12:53:41;68014.66;;;15.72;57.81
3844;BME280;1937;51.444;6.484;2023-05-24T12:56:07;67984.31;;;15.90;58.85
3844;BME280;1937;51.444;6.484;2023-05-24T12:58:34;68015.88;;;15.97;58.90
3844;BME280;1937;51.444;6.484;2023-05-24T13:01:01;68104.13;;;16.33;58.42
3844;BME280;1937;51.444;6.484;2023-05-24T13:03:29;68102.59;;;16.50;58.66
3844;BME280;1937;51.444;6.484;2023-05-24T13:05:56;68055.03;;;16.31;55.89
3844;BME280;1937;51.444;6.484;2023-05-24T13:08:24;68072.22;;;16.24;56.45
3844;BME280;1937;51.444;6.484;2023-05-24T13:10:53;68061.56;;;16.26;56.58
3844;BME280;1937;51.444;6.484;2023-05-24T13:13:19;67979.22;;;15.75;57.27
3844;BME280;1937;51.444;6.484;2023-05-24T13:15:46;68077.53;;;16.33;56.32
3844;BME280;1937;51.444;6.484;2023-05-24T13:18:13;68063.91;;;16.28;56.30
3844;BME280;1937;51.444;6.484;2023-05-24T13:20:41;68084.03;;;16.23;56.40
3844;BME280;1937;51.444;6.484;2023-05-24T13:23:08;68151.69;;;16.68;56.36
3844;BME280;1937;51.444;6.484;2023-05-24T13:25:35;68389.44;;;17.92;54.98
3844;BME280;1937;51.444;6.484;2023-05-24T13:28:01;68461.34;;;18.36;51.76
3844;BME280;1937;51.444;6.484;2023-05-24T13:30:28;68702.03;;;19.54;49.35